Terminal Aerodrome Forecast
Issued by NWS Louisville, KY

Home | Current Version | Previous Version | Text Only | Print | Product List | Glossary On
Versions: 1 2 3 4 5 6 7 8 9 10 11 12 13 14
884
FTUS43 KLMK 161250 AAA
TAFBWG
TAF AMD
KBWG 161250Z 1613/1712 28011KT P6SM -RASN BKN018 OVC040
     FM161500 27015G22KT P6SM BKN040
     FM170100 25008KT P6SM SCT040=

USA.gov is the U.S. government's official web portal to all federal, state and local government web resources and services.